Time;durP1;ratioP1;P1;durP2;ratioP2;P2;SDS_P1;SDS_P2;PMS_P1;PMS_P2;Temp;Humidity;BMP_temperature;BMP_pressure;BME280_temperature;BME280_humidity;BME280_pressure;Samples;Min_cycle;Max_cycle;Signal;HPM_P1;HPM_P2
2024/03/07 00:00:16;;;;;;;3.10;1.50;;;;;;;-1.93;73.18;103386.50;5013033;28;20436;-79
2024/03/07 00:02:43;;;;;;;3.57;2.03;;;;;;;-1.91;73.19;103378.94;5013152;28;20952;-79
2024/03/07 00:05:10;;;;;;;4.73;2.47;;;;;;;-1.92;72.47;103378.00;5013056;28;20442;-79
2024/03/07 00:07:38;;;;;;;3.33;2.00;;;;;;;-1.93;72.73;103377.94;5013076;28;20441;-79
2024/03/07 00:10:07;;;;;;;4.40;2.13;;;;;;;-1.93;72.89;103377.94;5012864;28;20439;-79
2024/03/07 00:12:35;;;;;;;3.07;1.90;;;;;;;-1.93;72.82;103377.94;5013062;28;20884;-68
2024/03/07 00:15:02;;;;;;;2.63;1.70;;;;;;;-1.94;72.61;103377.03;5012687;28;20578;-69
2024/03/07 00:17:30;;;;;;;3.03;1.73;;;;;;;-1.95;73.18;103375.22;5019428;28;20813;-69
2024/03/07 00:19:57;;;;;;;2.93;1.70;;;;;;;-1.94;72.62;103373.56;5032759;28;20450;-68
2024/03/07 00:22:26;;;;;;;2.87;1.73;;;;;;;-1.97;72.59;103373.34;5032537;28;20442;-75
2024/03/07 00:24:53;;;;;;;2.90;1.50;;;;;;;-1.96;73.34;103372.56;5032798;28;20474;-74
2024/03/07 00:27:20;;;;;;;2.80;1.63;;;;;;;-1.96;72.83;103370.00;5032442;28;20433;-75
2024/03/07 00:29:52;;;;;;;2.67;1.40;;;;;;;-1.99;72.73;103368.13;5032382;28;20496;-75
2024/03/07 00:32:20;;;;;;;3.30;1.60;;;;;;;-1.99;72.88;103367.25;5032513;28;20489;-75
2024/03/07 00:34:48;;;;;;;3.83;2.17;;;;;;;-2.00;73.65;103362.88;5032606;28;20487;-75
2024/03/07 00:37:15;;;;;;;3.27;1.90;;;;;;;-2.00;73.10;103362.88;5025150;28;20485;-75
2024/03/07 00:39:42;;;;;;;2.60;1.83;;;;;;;-2.01;73.50;103373.94;5012640;28;20444;-75
2024/03/07 00:42:10;;;;;;;2.87;2.00;;;;;;;-2.02;72.80;103367.03;5012508;28;20448;-75
2024/03/07 00:44:37;;;;;;;2.37;1.77;;;;;;;-2.02;72.94;103367.03;5014892;28;20445;-75
2024/03/07 00:47:04;;;;;;;3.70;2.07;;;;;;;-2.01;73.47;103368.78;5016483;28;20431;-75
2024/03/07 00:49:31;;;;;;;4.07;1.90;;;;;;;-2.02;72.90;103361.88;5016495;28;20440;-75
2024/03/07 00:52:00;;;;;;;2.80;1.73;;;;;;;-2.05;73.25;103364.22;5016321;28;20929;-75
2024/03/07 00:54:27;;;;;;;3.40;2.07;;;;;;;-2.04;73.06;103363.44;5016207;28;20443;-75
2024/03/07 00:56:55;;;;;;;2.83;2.10;;;;;;;-2.03;72.49;103360.09;5016298;28;20819;-75
2024/03/07 00:59:22;;;;;;;3.73;2.17;;;;;;;-2.05;73.53;103356.50;5020196;28;20503;-75
2024/03/07 01:01:50;;;;;;;2.97;2.03;;;;;;;-2.06;73.37;103352.19;5036108;28;20834;-75
2024/03/07 01:04:17;;;;;;;4.63;2.60;;;;;;;-2.05;73.13;103353.94;5036048;28;20439;-75
2024/03/07 01:06:44;;;;;;;3.20;2.00;;;;;;;-2.06;72.84;103352.19;5035774;28;20462;-75
2024/03/07 01:09:16;;;;;;;3.17;2.07;;;;;;;-2.07;73.23;103345.28;5036012;28;20435;-75
2024/03/07 01:11:44;;;;;;;3.30;1.60;;;;;;;-2.11;72.87;103344.19;5036028;28;20454;-75
2024/03/07 01:14:11;;;;;;;3.00;2.00;;;;;;;-2.09;73.45;103342.59;5035990;28;20442;-75
2024/03/07 01:16:38;;;;;;;4.63;2.07;;;;;;;-2.11;72.79;103341.63;5035531;28;20493;-75
2024/03/07 01:19:06;;;;;;;2.70;1.90;;;;;;;-2.11;72.63;103341.63;5035487;28;20437;-75
2024/03/07 01:21:33;;;;;;;4.40;2.20;;;;;;;-2.13;73.28;103340.59;5035635;28;20548;-73
2024/03/07 01:24:01;;;;;;;4.37;2.10;;;;;;;-2.13;73.51;103343.16;5035429;28;20443;-66
2024/03/07 01:26:30;;;;;;;4.47;2.30;;;;;;;-2.14;72.68;103338.81;5035506;28;20492;-67
2024/03/07 01:28:58;;;;;;;2.60;1.87;;;;;;;-2.15;72.75;103345.63;5035165;28;20529;-66
2024/03/07 01:31:25;;;;;;;3.27;1.97;;;;;;;-2.15;72.83;103344.72;5035634;28;20448;-67
2024/03/07 01:33:52;;;;;;;4.30;2.37;;;;;;;-2.20;72.72;103334.13;5035306;28;20449;-68
2024/03/07 01:36:20;;;;;;;2.90;1.70;;;;;;;-2.18;72.73;103336.81;5035199;28;20481;-68
2024/03/07 01:38:46;;;;;;;3.57;2.00;;;;;;;-2.20;72.98;103341.81;5035206;28;20936;-68
2024/03/07 01:41:14;;;;;;;2.50;1.70;;;;;;;-2.19;73.21;103332.47;5035393;28;20445;-68
2024/03/07 01:43:43;;;;;;;3.03;1.87;;;;;;;-2.20;73.00;103326.44;5035344;28;20440;-68
2024/03/07 01:46:11;;;;;;;2.03;1.63;;;;;;;-2.22;72.82;103329.72;5035129;28;20443;-68
2024/03/07 01:48:40;;;;;;;2.93;1.83;;;;;;;-2.21;73.31;103334.03;5034941;28;20454;-68
2024/03/07 01:51:08;;;;;;;2.27;1.70;;;;;;;-2.24;72.96;103328.69;5035270;28;20920;-68
2024/03/07 01:53:36;;;;;;;4.10;2.10;;;;;;;-2.25;72.65;103330.38;5035220;28;20450;-68
2024/03/07 01:56:04;;;;;;;2.43;2.03;;;;;;;-2.26;72.42;103326.00;5033959;28;20537;-68
2024/03/07 01:58:31;;;;;;;2.30;1.60;;;;;;;-2.26;73.01;103326.00;5033601;28;20447;-68
2024/03/07 02:01:00;;;;;;;3.10;2.13;;;;;;;-2.28;73.11;103317.34;5015300;28;20510;-68
2024/03/07 02:03:27;;;;;;;4.83;2.33;;;;;;;-2.28;72.87;103317.34;5014951;28;20811;-68
2024/03/07 02:05:54;;;;;;;3.80;2.00;;;;;;;-2.29;73.40;103315.53;5014985;28;20815;-68
2024/03/07 02:08:21;;;;;;;3.37;2.07;;;;;;;-2.30;72.96;103313.78;5014861;28;20444;-67
2024/03/07 02:10:48;;;;;;;2.83;1.93;;;;;;;-2.30;72.85;103313.78;5014861;28;20447;-68
2024/03/07 02:13:15;;;;;;;3.50;1.93;;;;;;;-2.32;72.61;103315.31;5014881;28;20439;-67
2024/03/07 02:15:42;;;;;;;3.03;2.30;;;;;;;-2.33;72.79;103318.69;5014676;28;20481;-68
2024/03/07 02:18:11;;;;;;;3.20;2.30;;;;;;;-2.36;72.84;103309.09;5014904;28;20439;-68
2024/03/07 02:20:38;;;;;;;3.20;2.37;;;;;;;-2.36;72.90;103314.22;5014650;28;20788;-68
2024/03/07 02:23:07;;;;;;;4.53;2.47;;;;;;;-2.37;72.73;103311.53;5014758;28;20459;-68
2024/03/07 02:25:37;;;;;;;3.90;2.30;;;;;;;-2.39;72.28;103303.75;5014685;28;20443;-67
2024/03/07 02:28:04;;;;;;;3.73;1.90;;;;;;;-2.40;73.15;103306.19;5014720;28;20440;-67
2024/03/07 02:30:32;;;;;;;3.57;2.30;;;;;;;-2.42;72.24;103300.09;5014523;28;20438;-68
2024/03/07 02:33:06;;;;;;;4.37;2.80;;;;;;;-2.44;72.71;103299.09;5014628;28;20450;-65
2024/03/07 02:35:34;;;;;;;4.83;2.40;;;;;;;-2.46;72.55;103303.19;5014446;28;20574;-66
2024/03/07 02:38:01;;;;;;;4.70;2.73;;;;;;;-2.49;72.68;103301.31;5030989;28;20520;-67
2024/03/07 02:40:30;;;;;;;2.90;1.97;;;;;;;-2.50;72.26;103298.66;5034343;28;20864;-66
2024/03/07 02:42:57;;;;;;;4.43;2.23;;;;;;;-2.54;72.30;103302.66;5034164;28;20443;-75
2024/03/07 02:45:24;;;;;;;4.00;2.13;;;;;;;-2.58;72.14;103298.97;5034341;28;20443;-75
2024/03/07 02:47:51;;;;;;;5.67;2.50;;;;;;;-2.60;72.65;103292.84;5033896;28;20440;-75
2024/03/07 02:50:18;;;;;;;3.53;2.43;;;;;;;-2.61;72.77;103290.19;5033944;28;20427;-75
2024/03/07 02:52:45;;;;;;;4.93;2.43;;;;;;;-2.63;72.67;103290.06;5033862;28;20441;-75
2024/03/07 02:55:13;;;;;;;4.80;2.30;;;;;;;-2.66;72.78;103284.72;5033720;28;20466;-75
2024/03/07 02:57:41;;;;;;;4.10;2.40;;;;;;;-2.67;72.72;103292.31;5033770;28;20439;-75
2024/03/07 03:00:19;;;;;;;4.87;2.37;;;;;;;-2.71;72.43;103282.59;5033713;28;20935;-75
2024/03/07 03:02:46;;;;;;;4.83;2.30;;;;;;;-2.75;72.06;103280.63;5033717;28;20472;-75
2024/03/07 03:05:14;;;;;;;4.67;2.47;;;;;;;-2.77;72.46;103280.50;5033620;28;20936;-75
2024/03/07 03:07:41;;;;;;;5.77;2.47;;;;;;;-2.79;71.80;103283.72;5033567;28;20493;-75
2024/03/07 03:10:10;;;;;;;3.57;2.37;;;;;;;-2.82;72.43;103279.31;5033579;28;20536;-75
2024/03/07 03:12:38;;;;;;;4.07;2.60;;;;;;;-2.85;72.17;103279.06;5033473;28;20438;-74
2024/03/07 03:15:09;;;;;;;5.23;2.60;;;;;;;-2.87;72.12;103270.38;5033542;28;20444;-74
2024/03/07 03:17:36;;;;;;;4.00;2.30;;;;;;;-2.90;72.30;103275.28;5033141;28;20805;-75
2024/03/07 03:20:09;;;;;;;4.83;2.33;;;;;;;-2.94;72.31;103269.03;5033483;28;20443;-75
2024/03/07 03:22:36;;;;;;;4.00;2.10;;;;;;;-3.00;72.31;103262.59;5033394;28;20434;-75
2024/03/07 03:25:03;;;;;;;5.70;2.83;;;;;;;-2.99;72.47;103269.47;5033264;28;20452;-74
2024/03/07 03:27:30;;;;;;;4.87;2.73;;;;;;;-3.03;72.36;103269.25;5033176;28;20801;-75
2024/03/07 03:29:58;;;;;;;5.50;2.40;;;;;;;-3.04;72.04;103275.16;5033192;28;20794;-74
2024/03/07 03:32:26;;;;;;;4.53;2.43;;;;;;;-3.06;72.21;103276.72;5033111;28;20450;-75
2024/03/07 03:34:53;;;;;;;4.57;2.20;;;;;;;-3.08;71.91;103272.25;5033176;28;20437;-75
2024/03/07 03:37:20;;;;;;;5.27;2.77;;;;;;;-3.10;72.10;103273.84;5032930;28;20478;-74
2024/03/07 03:39:47;;;;;;;5.47;2.80;;;;;;;-3.14;72.09;103265.00;5032990;28;20789;-74
2024/03/07 03:42:14;;;;;;;3.07;2.23;;;;;;;-3.16;72.58;103261.47;5032998;28;20928;-66
2024/03/07 03:44:40;;;;;;;5.67;2.90;;;;;;;-3.17;72.60;103256.22;5032926;28;20433;-66
2024/03/07 03:47:07;;;;;;;4.13;2.27;;;;;;;-3.21;72.10;103257.69;5032918;28;20450;-66
2024/03/07 03:49:36;;;;;;;5.27;2.67;;;;;;;-3.23;72.27;103253.22;5033043;28;20525;-66
2024/03/07 03:52:03;;;;;;;5.03;2.77;;;;;;;-3.26;72.19;103252.22;5033023;28;20431;-74
2024/03/07 03:54:29;;;;;;;3.47;2.27;;;;;;;-3.27;72.46;103257.22;5032928;28;20441;-74
2024/03/07 03:56:58;;;;;;;4.33;2.20;;;;;;;-3.30;71.96;103247.66;5032798;28;20482;-74
2024/03/07 03:59:25;;;;;;;3.00;2.30;;;;;;;-3.30;72.28;103251.91;5032730;28;20449;-75
2024/03/07 04:01:52;;;;;;;6.97;2.63;;;;;;;-3.33;72.05;103252.56;5032744;28;20452;-74
2024/03/07 04:04:19;;;;;;;4.83;2.67;;;;;;;-3.34;72.07;103244.75;5032763;28;20948;-74
2024/03/07 04:06:47;;;;;;;6.67;2.27;;;;;;;-3.38;72.35;103246.19;5032600;28;20932;-75
2024/03/07 04:09:15;;;;;;;3.27;2.27;;;;;;;-3.39;71.62;103241.88;5032591;28;20618;-75
2024/03/07 04:11:43;;;;;;;3.77;2.17;;;;;;;-3.46;72.48;103231.06;5032903;28;20467;-75
2024/03/07 04:14:10;;;;;;;4.83;2.70;;;;;;;-3.43;71.99;103228.72;5032560;28;20495;-75
2024/03/07 04:16:36;;;;;;;5.87;2.43;;;;;;;-3.48;72.05;103233.47;5032497;28;20486;-74
2024/03/07 04:19:03;;;;;;;4.50;2.47;;;;;;;-3.47;72.00;103231.84;5035982;28;20468;-75
2024/03/07 04:21:31;;;;;;;3.77;2.10;;;;;;;-3.52;72.22;103229.81;5039219;28;20438;-75
2024/03/07 04:24:00;;;;;;;4.03;2.40;;;;;;;-3.53;71.99;103220.38;5039046;28;20482;-74
2024/03/07 04:26:27;;;;;;;4.43;2.50;;;;;;;-3.56;72.30;103222.69;5039134;28;20940;-74
2024/03/07 04:28:52;;;;;;;4.60;2.57;;;;;;;-3.57;72.56;103220.91;5039203;28;20469;-75
2024/03/07 04:31:19;;;;;;;5.83;2.90;;;;;;;-3.58;72.50;103213.13;5032145;28;20900;-74
2024/03/07 04:33:46;;;;;;;4.53;2.80;;;;;;;-3.61;72.18;103212.91;5019156;28;20203;-74
2024/03/07 04:36:13;;;;;;;6.17;2.57;;;;;;;-3.63;72.21;103217.88;5020088;28;20484;-75
2024/03/07 04:38:44;;;;;;;5.50;3.10;;;;;;;-3.63;72.06;103220.44;5030769;28;20940;-75
2024/03/07 04:41:15;;;;;;;5.20;2.93;;;;;;;-3.68;71.93;103205.53;5020656;28;20953;-75
2024/03/07 04:43:42;;;;;;;4.53;2.37;;;;;;;-3.65;72.40;103216.88;5026487;28;20458;-75
2024/03/07 04:46:09;;;;;;;4.27;3.07;;;;;;;-3.65;71.81;103211.75;5025896;28;20451;-75
2024/03/07 04:48:36;;;;;;;4.07;2.60;;;;;;;-3.65;72.03;103210.88;5031016;28;20945;-74
2024/03/07 04:51:03;;;;;;;4.60;2.70;;;;;;;-3.65;72.25;103206.63;5027997;28;20442;-75
2024/03/07 04:53:30;;;;;;;4.23;2.63;;;;;;;-3.66;71.90;103210.00;5028155;28;20528;-69
2024/03/07 04:55:57;;;;;;;6.90;3.10;;;;;;;-3.67;72.15;103212.44;5023792;28;20477;-68
2024/03/07 04:58:25;;;;;;;6.43;2.83;;;;;;;-3.68;72.20;103203.84;5027950;28;20935;-68
2024/03/07 05:00:52;;;;;;;4.33;2.40;;;;;;;-3.69;72.01;103203.75;5027313;28;20452;-68
2024/03/07 05:03:19;;;;;;;5.30;2.57;;;;;;;-3.70;72.41;103197.75;5023677;28;20455;-73
2024/03/07 05:05:47;;;;;;;6.17;2.20;;;;;;;-3.70;72.50;103202.88;5030857;28;20484;-73
2024/03/07 05:08:14;;;;;;;4.30;2.43;;;;;;;-3.72;72.55;103197.63;5032877;28;20446;-73
2024/03/07 05:10:41;;;;;;;4.70;2.43;;;;;;;-3.73;72.68;103194.97;5028747;28;20781;-73
2024/03/07 05:13:08;;;;;;;4.23;2.50;;;;;;;-3.74;72.13;103190.63;5027115;28;20476;-73
2024/03/07 05:15:36;;;;;;;4.50;2.80;;;;;;;-3.75;72.55;103192.28;5029957;28;20946;-73
2024/03/07 05:18:04;;;;;;;4.47;2.33;;;;;;;-3.77;72.60;103185.28;5024232;28;20480;-73
2024/03/07 05:20:31;;;;;;;3.90;2.70;;;;;;;-3.78;72.15;103186.06;5031065;28;20952;-73
2024/03/07 05:22:58;;;;;;;4.60;2.43;;;;;;;-3.80;72.61;103170.59;5031625;28;20805;-73
2024/03/07 05:25:26;;;;;;;5.33;2.67;;;;;;;-3.81;72.46;103173.94;5027812;28;21019;-72
2024/03/07 05:27:53;;;;;;;5.20;2.57;;;;;;;-3.82;72.64;103178.91;5020043;28;20968;-73
2024/03/07 05:30:22;;;;;;;5.87;2.87;;;;;;;-3.82;72.59;103177.25;5021868;28;20825;-73
2024/03/07 05:32:51;;;;;;;5.60;2.83;;;;;;;-3.81;72.40;103173.03;5021639;28;20862;-73
2024/03/07 05:35:17;;;;;;;7.10;2.63;;;;;;;-3.82;72.47;103171.25;5024855;28;20444;-72
2024/03/07 05:37:46;;;;;;;5.53;2.70;;;;;;;-3.85;72.96;103165.91;4984386;28;20476;-75
2024/03/07 05:40:13;;;;;;;4.10;2.57;;;;;;;-3.81;72.25;103165.38;5021285;28;20201;-74
2024/03/07 05:42:41;;;;;;;4.37;2.67;;;;;;;-3.81;72.70;103167.94;5031908;28;20444;-75
2024/03/07 05:45:09;;;;;;;5.63;2.80;;;;;;;-3.83;72.81;103170.34;5032763;28;20491;-75
2024/03/07 05:47:35;;;;;;;3.77;2.10;;;;;;;-3.79;72.66;103171.47;5032045;28;20951;-75
2024/03/07 05:50:07;;;;;;;6.33;2.50;;;;;;;-3.80;72.99;103173.16;5032188;28;20944;-75
2024/03/07 05:52:35;;;;;;;4.43;2.20;;;;;;;-3.77;72.58;103177.59;5032030;28;20437;-75
2024/03/07 05:55:02;;;;;;;5.03;2.97;;;;;;;-3.76;72.91;103177.72;5032261;28;20871;-74
2024/03/07 05:57:29;;;;;;;5.60;2.90;;;;;;;-3.77;72.63;103181.03;5032420;28;20869;-74
2024/03/07 05:59:56;;;;;;;4.87;2.67;;;;;;;-3.74;72.66;103170.16;5032156;28;20944;-74
2024/03/07 06:02:23;;;;;;;4.63;2.57;;;;;;;-3.73;72.65;103177.06;5032545;28;20445;-67
2024/03/07 06:04:50;;;;;;;2.50;2.27;;;;;;;-3.73;72.75;103171.94;5031806;28;21571;-67
2024/03/07 06:07:18;;;;;;;6.50;3.03;;;;;;;-3.71;73.06;103178.06;5031936;28;20445;-67
2024/03/07 06:09:45;;;;;;;4.47;2.47;;;;;;;-3.70;72.83;103172.19;5031848;28;20795;-67
2024/03/07 06:12:12;;;;;;;11.10;3.33;;;;;;;-3.68;73.04;103174.84;5031635;28;20445;-69
2024/03/07 06:14:39;;;;;;;12.03;3.00;;;;;;;-3.73;72.70;103164.28;5031469;28;20448;-68
2024/03/07 06:17:06;;;;;;;4.60;2.67;;;;;;;-3.65;73.03;103173.38;5031472;28;20483;-69
2024/03/07 06:19:33;;;;;;;5.00;2.43;;;;;;;-3.64;73.49;103167.50;5031636;28;20453;-69
2024/03/07 06:22:00;;;;;;;4.17;2.60;;;;;;;-3.62;72.84;103171.06;5031651;28;20492;-69
2024/03/07 06:24:30;;;;;;;5.23;2.70;;;;;;;-3.60;73.15;103174.63;5031846;28;20940;-68
2024/03/07 06:27:03;;;;;;;3.87;2.37;;;;;;;-3.58;72.83;103170.50;5031780;28;20452;-69
2024/03/07 06:29:30;;;;;;;6.00;2.63;;;;;;;-3.57;72.82;103169.72;5031567;28;20450;-68
2024/03/07 06:31:58;;;;;;;5.10;2.20;;;;;;;-3.54;73.14;103164.81;5031447;28;20439;-69
2024/03/07 06:34:25;;;;;;;4.70;2.63;;;;;;;-3.53;73.56;103166.63;5031526;28;20495;-68
2024/03/07 06:36:52;;;;;;;3.63;2.10;;;;;;;-3.50;72.88;103171.97;5028520;28;20540;-69
2024/03/07 06:39:21;;;;;;;3.73;2.20;;;;;;;-3.47;73.49;103163.63;5031286;28;21408;-69
2024/03/07 06:41:50;;;;;;;4.67;2.50;;;;;;;-3.44;73.11;103158.72;5030554;28;20442;-68
2024/03/07 06:44:17;;;;;;;5.90;2.77;;;;;;;-3.43;73.05;103152.81;5030758;28;20444;-69
2024/03/07 06:46:45;;;;;;;5.17;2.33;;;;;;;-3.40;73.52;103153.03;5030464;28;20459;-68
2024/03/07 06:49:12;;;;;;;3.17;2.23;;;;;;;-3.38;73.32;103148.94;5030838;28;20438;-68
2024/03/07 06:51:39;;;;;;;3.87;2.63;;;;;;;-3.34;73.61;103138.13;5030817;28;20440;-69
2024/03/07 06:54:06;;;;;;;3.80;2.77;;;;;;;-3.31;73.59;103140.00;5031004;28;20441;-69
2024/03/07 06:56:33;;;;;;;6.35;3.67;;;;;;;-3.25;75.14;103137.88;5029956;28;20516;-69
2024/03/07 06:59:04;;;;;;;5.93;2.73;;;;;;;-3.21;74.90;103142.47;5027958;28;20200;-68
2024/03/07 07:01:31;;;;;;;4.60;2.43;;;;;;;-3.17;74.34;103136.75;5027740;28;20495;-69
2024/03/07 07:03:58;;;;;;;3.77;2.63;;;;;;;-3.15;74.20;103137.78;5030888;28;20445;-73
2024/03/07 07:06:26;;;;;;;5.73;2.57;;;;;;;-3.10;74.07;103138.13;5030877;28;20440;-71
2024/03/07 07:08:52;;;;;;;6.43;2.30;;;;;;;-3.06;74.52;103137.53;5030743;28;20451;-70
2024/03/07 07:11:19;;;;;;;5.17;2.17;;;;;;;-3.04;74.84;103131.75;5030699;28;20461;-71
2024/03/07 07:13:46;;;;;;;5.00;2.60;;;;;;;-3.01;74.25;103125.06;5030500;28;20434;-68
2024/03/07 07:16:15;;;;;;;3.73;2.27;;;;;;;-2.95;73.98;103128.06;5030453;28;20809;-68
2024/03/07 07:18:43;;;;;;;5.80;2.73;;;;;;;-2.91;74.53;103124.91;5030112;28;20490;-69
2024/03/07 07:21:10;;;;;;;4.37;1.97;;;;;;;-2.89;74.58;103123.34;5030433;28;20446;-69
2024/03/07 07:23:37;;;;;;;5.43;2.50;;;;;;;-2.83;74.25;103132.34;5030248;28;20854;-69
2024/03/07 07:26:05;;;;;;;5.53;2.50;;;;;;;-2.78;74.96;103122.44;5029950;28;20988;-69
2024/03/07 07:28:33;;;;;;;4.03;2.60;;;;;;;-2.74;74.74;103129.53;5027619;28;20442;-68
2024/03/07 07:31:00;;;;;;;6.17;2.33;;;;;;;-2.71;74.61;103114.38;5027452;28;20465;-69
2024/03/07 07:33:28;;;;;;;4.33;2.37;;;;;;;-2.67;74.36;103113.81;5030819;28;20446;-68
2024/03/07 07:35:55;;;;;;;4.80;2.23;;;;;;;-2.58;74.79;103121.25;5029904;28;20817;-69
2024/03/07 07:38:22;;;;;;;5.30;2.23;;;;;;;-2.52;75.17;103115.66;5030193;28;20492;-69
2024/03/07 07:40:49;;;;;;;2.77;1.93;;;;;;;-2.46;74.72;103113.50;5030081;28;20449;-69
2024/03/07 07:43:16;;;;;;;5.07;2.13;;;;;;;-2.38;74.65;103118.38;5030238;28;20431;-69
2024/03/07 07:45:43;;;;;;;3.67;2.47;;;;;;;-2.31;74.44;103109.44;5030212;28;20443;-69
2024/03/07 07:48:11;;;;;;;4.83;2.00;;;;;;;-2.22;74.77;103106.59;5029993;28;20934;-68
2024/03/07 07:50:39;;;;;;;4.87;1.93;;;;;;;-2.14;74.71;103106.31;5029875;28;20539;-69
2024/03/07 07:53:08;;;;;;;3.60;1.87;;;;;;;-2.09;75.23;103100.59;5025725;28;20439;-69
2024/03/07 07:55:36;;;;;;;3.23;2.20;;;;;;;-1.92;74.59;103100.03;5029663;28;20577;-70
2024/03/07 07:58:04;;;;;;;3.13;1.70;;;;;;;-1.81;74.87;103098.16;5030245;28;20485;-70
2024/03/07 08:00:31;;;;;;;3.17;2.03;;;;;;;-1.70;74.97;103100.63;5030136;28;20792;-70
2024/03/07 08:02:59;;;;;;;2.43;1.77;;;;;;;-1.58;75.39;103100.53;5030064;28;20436;-69
2024/03/07 08:05:27;;;;;;;3.77;2.13;;;;;;;-1.46;74.73;103097.88;5030107;28;20442;-70
2024/03/07 08:07:56;;;;;;;3.87;2.17;;;;;;;-1.36;75.08;103087.41;5031253;28;20561;-69
2024/03/07 08:10:25;;;;;;;2.63;1.90;;;;;;;-1.21;75.00;103096.88;5049813;28;20599;-69
2024/03/07 08:12:53;;;;;;;3.23;1.90;;;;;;;-1.08;75.12;103096.84;5049782;28;20788;-70
2024/03/07 08:15:20;;;;;;;3.37;2.23;;;;;;;-0.97;74.59;103098.41;5049787;28;20452;-69
2024/03/07 08:17:48;;;;;;;4.10;2.20;;;;;;;-0.85;75.44;103099.16;5049580;28;20568;-69
2024/03/07 08:20:18;;;;;;;4.93;1.90;;;;;;;-0.73;75.46;103093.88;5049704;28;20438;-70
2024/03/07 08:22:45;;;;;;;2.63;1.90;;;;;;;-0.59;75.13;103102.41;5049301;28;20442;-71
2024/03/07 08:25:15;;;;;;;3.73;2.20;;;;;;;-0.47;74.65;103100.56;5049425;28;20799;-72
2024/03/07 08:27:43;;;;;;;4.30;2.30;;;;;;;-0.37;75.52;103090.06;5049147;28;20480;-71
2024/03/07 08:30:12;;;;;;;2.30;1.77;;;;;;;-0.25;75.06;103089.00;5049390;28;20538;-71
2024/03/07 08:32:40;;;;;;;3.77;2.30;;;;;;;-0.15;75.03;103091.28;5049379;28;20439;-69
2024/03/07 08:35:09;;;;;;;2.70;2.00;;;;;;;-0.05;75.43;103085.91;5049034;28;20930;-70
2024/03/07 08:37:36;;;;;;;3.83;2.10;;;;;;;0.04;74.99;103083.84;5049165;28;20477;-70
2024/03/07 08:40:06;;;;;;;5.27;2.47;;;;;;;0.15;75.07;103081.00;5049731;28;20442;-69
2024/03/07 08:42:35;;;;;;;3.27;2.00;;;;;;;0.24;75.19;103081.53;5049050;28;20442;-69
2024/03/07 08:45:04;;;;;;;3.57;2.10;;;;;;;0.34;74.69;103086.41;5046444;28;20442;-70
2024/03/07 08:47:31;;;;;;;4.20;2.20;;;;;;;0.41;74.54;103073.06;5049476;28;20454;-69
2024/03/07 08:49:58;;;;;;;4.80;2.03;;;;;;;0.49;74.69;103071.81;5049837;28;20442;-70
2024/03/07 08:52:25;;;;;;;2.90;1.80;;;;;;;0.57;74.85;103067.09;5049764;28;20518;-75
2024/03/07 08:54:52;;;;;;;5.67;2.27;;;;;;;0.65;74.52;103063.25;5048756;28;20474;-73
2024/03/07 08:57:19;;;;;;;2.90;2.07;;;;;;;0.72;74.16;103067.03;5049184;28;20897;-73
2024/03/07 08:59:47;;;;;;;5.50;1.97;;;;;;;0.80;74.06;103065.75;5048917;28;20429;-74
2024/03/07 09:02:14;;;;;;;2.77;1.97;;;;;;;0.88;74.38;103063.56;5047632;28;20443;-74
2024/03/07 09:04:41;;;;;;;3.20;1.77;;;;;;;0.94;73.92;103066.50;5050011;28;20446;-74
2024/03/07 09:07:08;;;;;;;3.60;1.90;;;;;;;0.99;73.93;103060.81;5053163;28;20437;-73
2024/03/07 09:09:35;;;;;;;3.93;2.30;;;;;;;1.04;74.10;103058.44;5052789;28;20942;-73
2024/03/07 09:12:02;;;;;;;3.93;2.00;;;;;;;1.11;73.94;103055.41;5052986;28;20430;-73
2024/03/07 09:14:29;;;;;;;2.70;1.83;;;;;;;1.15;73.39;103048.72;5053129;28;20432;-74
2024/03/07 09:16:58;;;;;;;4.23;1.73;;;;;;;1.20;73.68;103042.09;5053045;28;20442;-73
2024/03/07 09:19:25;;;;;;;3.53;2.10;;;;;;;1.26;73.44;103050.16;5053223;28;20448;-73
2024/03/07 09:21:52;;;;;;;2.50;1.70;;;;;;;1.30;73.16;103051.19;5052463;28;20529;-72
2024/03/07 09:24:21;;;;;;;4.03;1.90;;;;;;;1.35;73.36;103053.19;5052920;28;21292;-72
2024/03/07 09:26:49;;;;;;;4.00;1.97;;;;;;;1.38;73.22;103045.63;5052497;28;20446;-73
2024/03/07 09:29:16;;;;;;;3.43;2.03;;;;;;;1.43;73.18;103041.59;5052500;28;20495;-72
2024/03/07 09:31:43;;;;;;;3.93;1.90;;;;;;;1.48;72.89;103045.31;5052237;28;20534;-73
2024/03/07 09:34:12;;;;;;;4.43;1.83;;;;;;;1.53;72.94;103042.06;5052498;28;20957;-74
2024/03/07 09:36:40;;;;;;;4.10;2.03;;;;;;;1.57;72.54;103038.84;5052443;28;20545;-73
2024/03/07 09:39:08;;;;;;;4.37;2.37;;;;;;;1.59;72.42;103037.19;5052458;28;20536;-74
2024/03/07 09:41:36;;;;;;;3.07;1.90;;;;;;;1.63;72.34;103040.03;5052133;28;20448;-71
2024/03/07 09:44:04;;;;;;;5.10;1.70;;;;;;;1.68;72.25;103032.53;5052641;28;20438;-72
2024/03/07 09:46:32;;;;;;;2.97;1.60;;;;;;;1.75;72.14;103024.25;5052680;28;20434;-72
2024/03/07 09:48:59;;;;;;;4.27;1.90;;;;;;;1.85;72.15;103034.25;5049170;28;20438;-73
2024/03/07 09:51:29;;;;;;;3.10;1.97;;;;;;;1.95;72.15;103019.19;5052512;28;20526;-73
2024/03/07 09:53:59;;;;;;;3.03;2.10;;;;;;;2.01;72.40;103017.78;5052725;28;20844;-70
2024/03/07 09:56:28;;;;;;;2.20;1.70;;;;;;;2.06;71.75;103015.44;5052603;28;20470;-70
2024/03/07 09:58:58;;;;;;;3.23;1.93;;;;;;;2.09;71.65;103011.31;5052317;28;20485;-73
2024/03/07 10:01:28;;;;;;;4.73;2.10;;;;;;;2.14;71.33;103004.66;5052449;28;20446;-73
2024/03/07 10:04:01;;;;;;;2.23;1.57;;;;;;;2.24;71.11;103010.28;5052195;28;20796;-73
2024/03/07 10:06:30;;;;;;;5.77;1.93;;;;;;;2.30;71.07;103011.47;5048841;28;20945;-72
2024/03/07 10:08:58;;;;;;;3.20;1.90;;;;;;;2.35;70.85;103009.97;5051997;28;20932;-74
2024/03/07 10:11:25;;;;;;;3.40;1.90;;;;;;;2.36;71.23;103009.16;5052172;28;20496;-74
2024/03/07 10:13:54;;;;;;;4.60;2.03;;;;;;;2.38;70.73;103002.34;5051488;28;20506;-74
2024/03/07 10:16:22;;;;;;;5.20;1.70;;;;;;;2.43;70.60;103017.19;5050742;28;20493;-73
2024/03/07 10:18:50;;;;;;;4.17;2.07;;;;;;;2.45;70.52;103010.41;5051307;28;20533;-74
2024/03/07 10:21:20;;;;;;;2.50;1.83;;;;;;;2.45;70.50;103005.25;5051438;28;20446;-74
2024/03/07 10:23:48;;;;;;;5.97;2.17;;;;;;;2.51;70.33;103008.09;5051068;28;20436;-74
2024/03/07 10:26:17;;;;;;;4.40;1.83;;;;;;;2.54;70.51;103010.84;5051514;28;20455;-74
2024/03/07 10:28:44;;;;;;;3.67;1.83;;;;;;;2.56;70.41;103007.50;5051144;28;20454;-74
2024/03/07 10:31:15;;;;;;;3.00;1.80;;;;;;;2.57;70.08;103003.22;5051318;28;20438;-74
2024/03/07 10:33:42;;;;;;;2.87;1.73;;;;;;;2.62;69.89;103000.84;5050913;28;21015;-74
2024/03/07 10:36:13;;;;;;;3.07;1.57;;;;;;;2.64;69.79;103000.09;5047991;28;20444;-74
2024/03/07 10:38:40;;;;;;;3.47;1.70;;;;;;;2.66;69.78;103001.03;5050835;28;20481;-74
2024/03/07 10:41:11;;;;;;;3.93;1.80;;;;;;;2.69;69.60;102998.59;5051128;28;20443;-75
2024/03/07 10:43:42;;;;;;;2.40;1.77;;;;;;;2.69;69.55;102990.84;5050879;28;20496;-75
2024/03/07 10:46:12;;;;;;;4.63;1.80;;;;;;;2.64;69.04;102981.13;5051190;28;20947;-74
2024/03/07 10:48:40;;;;;;;4.03;2.10;;;;;;;2.72;69.37;102996.16;5050690;28;20809;-74
2024/03/07 10:51:15;;;;;;;2.97;1.70;;;;;;;2.77;69.31;102994.66;5051281;28;20448;-75
2024/03/07 10:53:51;;;;;;;2.47;1.63;;;;;;;2.77;69.21;102984.31;5050925;28;20444;-70
2024/03/07 10:56:35;;;;;;;5.20;2.00;;;;;;;2.80;68.94;102979.28;5050481;28;20571;-70
2024/03/07 10:59:14;;;;;;;3.40;1.70;;;;;;;2.82;68.76;102980.25;5047719;28;20582;-70
2024/03/07 11:01:49;;;;;;;3.67;1.57;;;;;;;2.85;68.77;102982.09;5050266;28;20457;-70
2024/03/07 11:04:18;;;;;;;4.80;1.80;;;;;;;2.87;68.66;102983.06;5050633;28;20438;-69
2024/03/07 11:06:45;;;;;;;3.20;1.80;;;;;;;2.89;68.51;102983.09;5050329;28;20448;-70
2024/03/07 11:09:13;;;;;;;5.50;1.80;;;;;;;2.91;68.58;102977.19;5050567;28;20467;-70
2024/03/07 11:11:43;;;;;;;5.07;1.40;;;;;;;2.95;68.28;102980.78;5050275;28;20448;-70
2024/03/07 11:14:12;;;;;;;2.67;1.80;;;;;;;2.97;68.24;102976.56;5050381;28;20498;-70
2024/03/07 11:16:40;;;;;;;4.03;1.70;;;;;;;3.00;68.40;102979.28;5050300;28;20453;-70
2024/03/07 11:19:27;;;;;;;4.57;1.77;;;;;;;3.03;68.38;102967.38;5050283;28;20480;-70
2024/03/07 11:21:56;;;;;;;2.70;1.80;;;;;;;3.02;68.29;102978.53;5050531;28;20529;-70
2024/03/07 11:24:28;;;;;;;4.77;1.47;;;;;;;3.08;68.13;102975.34;5050153;28;20439;-70
2024/03/07 11:26:57;;;;;;;4.33;1.83;;;;;;;3.10;67.76;102970.22;5050424;28;20436;-70
2024/03/07 11:29:47;;;;;;;9.53;1.80;;;;;;;3.13;68.02;102971.25;5049216;28;20879;-70